Kezdőlap
METAR-TAF:

METAR-TAF

Repülőterek :

Vadsø, Norvégia

földrajzi szélesség: 70-04N, földrajzi hosszúság: 029-51E, magasság: 3 m

Jelenlegi meteorológiai megfigyelések

A jelentés 1 órával és 4 perccel ezelõtt készült, 07:50 UTC
Délkeleti szél 5 kt
Hőmérséklet 9°C
Páratartalom 87%
Légköri nyomás 1018 hPa
Látótávolság 10 km, vagy több
Szakadozott felhőzet 2200 lábon
enyhe záporok

METAR: ENVD 130750Z 13005KT 9999 -SHRA BKN022 09/07 Q1018

Idő: 10:54 (08:54 UTC)

Előrejelzés

A jelentés 54 perccel ezelõtt készült, 08:00 UTC
Az előrejelzés 13-én 09 óra UTC és 13-én 18 óra UTC között érvényes
Keleti szél 10 kt
Látótávolság 10 km, vagy több
Kevés felhő 1000 lábon
Szakadozott felhőzet 4000 lábon

TAF: ENVD 130800Z 1309/1318 10010KT 9999 FEW010 BKN040

Meteorológiai megfigyelések és előrejelzések több, mint 4000 repülőtéren (METAR és TAF jelentéseket).

A térképen piros és sárga pontok jelzik az elérhető meteorológiai állomásokat.

Mozgassa az egeret a pont fölött, hogy megjelenjen az állomás neve.

Azután kattintson az időjárási megfigyelések és előrejelzések megtekintéséhez.

A térkép megváltoztatása: kattintson a fekete keresztel jelölt zöld gombra ráközelítéshez, a vonallal jelölt zöld gombra távolításhoz, vagy a zöld nyilakra a szomszédos térképek eléréséhez.


METAR-TAF: